Time;durP1;ratioP1;P1;durP2;ratioP2;P2;SDS_P1;SDS_P2;PMS_P1;PMS_P2;Temp;Humidity;BMP_temperature;BMP_pressure;BME280_temperature;BME280_humidity;BME280_pressure;Samples;Min_cycle;Max_cycle;Signal;HPM_P1;HPM_P2
2021/08/16 09:03:49;;;;;;;5.07;3.33;;;;;;;;;;5070782;28;20952;-65
2021/08/16 09:06:17;;;;;;;4.60;4.03;;;;;;;;;;5070722;28;20172;-65
2021/08/16 09:08:44;;;;;;;6.35;3.55;;;;;;;;;;5070670;28;20621;-66
2021/08/16 09:11:10;;;;;;;4.93;2.75;;;;;;;;;;5070678;28;20251;-66
2021/08/16 09:13:36;;;;;;;8.05;3.03;;;;;;;;;;5070587;28;20587;-66
2021/08/16 09:16:10;;;;;;;5.90;2.67;;;17.50;99.90;;;;;;5070458;28;20684;-66
2021/08/16 09:18:36;;;;;;;4.35;2.53;;;17.60;99.90;;;;;;5070516;28;20188;-66
2021/08/16 09:21:02;;;;;;;5.65;2.78;;;17.60;99.90;;;;;;5070402;28;20165;-66
2021/08/16 09:23:29;;;;;;;4.80;2.90;;;17.90;99.90;;;;;;5070264;28;20188;-66
2021/08/16 09:25:56;;;;;;;3.85;2.65;;;17.80;99.90;;;;;;5070815;28;20218;-66
2021/08/16 09:28:30;;;;;;;5.75;3.00;;;17.90;99.90;;;;;;5070230;28;20664;-66
2021/08/16 09:30:57;;;;;;;8.30;3.08;;;17.80;99.90;;;;;;5070397;28;20634;-66
2021/08/16 09:33:23;;;;;;;4.97;3.45;;;18.10;99.90;;;;;;5070183;28;20168;-66
2021/08/16 09:35:57;;;;;;;5.38;3.63;;;17.90;99.90;;;;;;5070211;28;20192;-65
2021/08/16 09:38:35;;;;;;;10.15;4.10;;;17.70;99.90;;;;;;5070113;28;20637;-66
2021/08/16 09:41:01;;;;;;;4.72;3.63;;;17.80;99.90;;;;;;5069961;28;20187;-66
2021/08/16 09:43:28;;;;;;;5.65;3.40;;;17.80;99.90;;;;;;5069866;28;20253;-66
2021/08/16 09:45:53;;;;;;;5.18;3.30;;;17.80;99.90;;;;;;5068754;28;20169;-66
2021/08/16 09:48:23;;;;;;;8.27;3.65;;;17.80;99.90;;;;;;5069881;28;20171;-65
2021/08/16 09:50:52;;;;;;;6.38;3.10;;;17.60;99.90;;;;;;5069820;28;20169;-66
2021/08/16 09:53:19;;;;;;;7.45;3.65;;;17.70;99.90;;;;;;5069711;28;20642;-65
2021/08/16 09:55:47;;;;;;;2.90;2.70;;;17.70;99.90;;;;;;5069699;28;20180;-66
2021/08/16 09:58:15;;;;;;;7.85;3.88;;;17.70;99.90;;;;;;5069665;28;20177;-66
2021/08/16 10:00:42;;;;;;;7.53;3.60;;;17.60;99.90;;;;;;5069604;28;20255;-66
2021/08/16 10:03:08;;;;;;;8.93;3.15;;;17.50;99.90;;;;;;5049521;28;20213;-66
2021/08/16 10:05:39;;;;;;;8.70;3.47;;;17.60;99.90;;;;;;5049636;28;20531;-66
2021/08/16 10:08:07;;;;;;;6.30;3.08;;;17.50;99.90;;;;;;5049505;28;20177;-66
2021/08/16 10:10:39;;;;;;;6.07;2.88;;;17.40;99.90;;;;;;5048297;28;20639;-66
2021/08/16 10:13:06;;;;;;;6.85;3.15;;;17.60;99.90;;;;;;5048153;28;20180;-66
2021/08/16 10:15:37;;;;;;;5.32;3.03;;;17.70;99.90;;;;;;5035938;28;20189;-66
2021/08/16 10:18:08;;;;;;;4.80;3.30;;;17.90;99.90;;;;;;5036177;28;20197;-66
2021/08/16 10:20:35;;;;;;;3.40;2.72;;;18.10;99.90;;;;;;5036018;28;20272;-66
2021/08/16 10:23:01;;;;;;;3.67;2.83;;;18.40;99.90;;;;;;5034708;28;20259;-66
2021/08/16 10:25:27;;;;;;;5.13;2.90;;;18.40;99.90;;;;;;5036002;28;20165;-66
2021/08/16 10:28:02;;;;;;;6.13;3.00;;;18.40;99.90;;;;;;5035943;28;20173;-66
2021/08/16 10:30:28;;;;;;;6.10;3.13;;;18.30;99.90;;;;;;5035909;28;20623;-66
2021/08/16 10:33:03;;;;;;;7.00;2.80;;;18.40;99.90;;;;;;5035817;28;20182;-66
2021/08/16 10:35:39;;;;;;;6.85;2.60;;;18.30;99.90;;;;;;5035804;28;20171;-66
2021/08/16 10:38:09;;;;;;;4.82;2.83;;;18.20;99.90;;;;;;5035700;28;20165;-65
2021/08/16 10:40:50;;;;;;;3.00;2.70;;;17.90;99.90;;;;;;5035746;28;20653;-65
2021/08/16 10:43:17;;;;;;;4.80;3.40;;;17.50;99.90;;;;;;5035620;28;20215;-65
2021/08/16 10:45:47;;;;;;;5.05;3.05;;;17.30;99.90;;;;;;5035709;28;20169;-65
2021/08/16 10:48:25;;;;;;;5.07;3.17;;;17.30;99.90;;;;;;5035819;28;20162;-65
2021/08/16 10:51:23;;;;;;;3.28;3.08;;;17.00;99.90;;;;;;5035583;28;20169;-65
2021/08/16 10:53:50;;;;;;;3.88;3.42;;;17.30;99.90;;;;;;5023515;28;20666;-65
2021/08/16 10:56:24;;;;;;;7.10;3.60;;;17.30;99.90;;;;;;5035486;28;20185;-65
2021/08/16 10:58:51;;;;;;;9.45;4.97;;;16.90;99.90;;;;;;5035414;28;20166;-65
2021/08/16 11:01:31;;;;;;;4.40;3.83;;;17.00;99.90;;;;;;5035292;28;20559;-65
2021/08/16 11:04:06;;;;;;;5.65;4.35;;;16.80;99.90;;;;;;5035430;28;20186;-65
2021/08/16 11:06:32;;;;;;;5.63;3.92;;;16.80;99.90;;;;;;5035248;28;20170;-65
2021/08/16 11:08:59;;;;;;;4.88;3.33;;;17.10;99.90;;;;;;5035249;28;20174;-65
2021/08/16 11:11:25;;;;;;;5.30;3.45;;;16.70;99.90;;;;;;5035126;28;20166;-65
2021/08/16 11:14:09;;;;;;;5.05;3.75;;;16.80;99.90;;;;;;5035067;28;20228;-65
2021/08/16 11:16:45;;;;;;;3.22;3.03;;;16.30;99.90;;;;;;5035097;28;20257;-65
2021/08/16 11:19:11;;;;;;;5.93;3.53;;;16.60;99.90;;;;;;5033784;28;20169;-65
2021/08/16 11:21:37;;;;;;;2.92;2.72;;;16.40;99.90;;;;;;5034882;28;20249;-65
2021/08/16 11:24:02;;;;;;;3.90;2.85;;;16.40;99.90;;;;;;5034960;28;20172;-65
2021/08/16 11:26:28;;;;;;;2.88;2.20;;;16.20;99.90;;;;;;5033849;28;20170;-65
2021/08/16 11:29:06;;;;;;;2.10;2.00;;;16.60;99.90;;;;;;5034792;28;20205;-65
2021/08/16 11:31:33;;;;;;;1.80;1.70;;;16.70;99.90;;;;;;5034709;28;20518;-65
2021/08/16 11:34:06;;;;;;;1.80;1.70;;;16.70;99.90;;;;;;5034724;28;20170;-65
2021/08/16 11:36:36;;;;;;;4.28;1.80;;;16.40;99.90;;;;;;5034652;28;20685;-65
2021/08/16 11:39:04;;;;;;;2.25;1.77;;;16.40;99.90;;;;;;5034579;28;20185;-65
2021/08/16 11:41:32;;;;;;;2.58;2.22;;;16.50;99.90;;;;;;5034530;28;20183;-65
2021/08/16 11:44:08;;;;;;;3.03;2.35;;;15.90;99.90;;;;;;5034457;28;20169;-65
2021/08/16 11:46:34;;;;;;;5.38;3.42;;;15.90;99.90;;;;;;5034716;28;20639;-65
2021/08/16 11:49:05;;;;;;;5.97;3.53;;;15.90;99.90;;;;;;5034420;28;20189;-65
2021/08/16 11:51:32;;;;;;;5.18;4.20;;;15.60;99.90;;;;;;5034398;28;20180;-65
2021/08/16 11:53:58;;;;;;;5.57;4.65;;;15.80;99.90;;;;;;5034331;28;20181;-65
2021/08/16 11:56:23;;;;;;;4.85;4.35;;;15.40;99.90;;;;;;5034247;28;20235;-65
2021/08/16 11:58:49;;;;;;;8.20;5.22;;;15.10;99.90;;;;;;5034262;28;20170;-65
2021/08/16 12:01:15;;;;;;;6.55;5.88;;;15.00;99.90;;;;;;5034089;28;20204;-64
2021/08/16 12:03:41;;;;;;;7.20;6.50;;;14.80;99.90;;;;;;5032669;28;20245;-64
2021/08/16 12:06:12;;;;;;;6.18;5.53;;;14.70;99.90;;;;;;5034152;28;20220;-65
2021/08/16 12:08:38;;;;;;;7.95;7.07;;;14.60;99.90;;;;;;5034112;28;20197;-65
2021/08/16 12:11:12;;;;;;;13.32;7.95;;;14.50;99.90;;;;;;5033940;28;20239;-64
2021/08/16 12:13:38;;;;;;;10.98;7.28;;;14.80;99.90;;;;;;5034013;28;20264;-65
2021/08/16 12:16:04;;;;;;;9.68;8.73;;;15.00;99.90;;;;;;5033916;28;20173;-64
2021/08/16 12:18:30;;;;;;;9.95;9.00;;;14.70;99.90;;;;;;5033910;28;20192;-64
2021/08/16 12:20:57;;;;;;;12.90;8.98;;;14.80;99.90;;;;;;5033884;28;20180;-64
2021/08/16 12:23:31;;;;;;;10.10;9.10;;;14.90;99.90;;;;;;5033696;28;20204;-64
2021/08/16 12:25:57;;;;;;;15.05;9.32;;;14.70;99.90;;;;;;5033862;28;20184;-64
2021/08/16 12:28:34;;;;;;;14.98;8.95;;;14.90;99.90;;;;;;5032515;28;20260;-64
2021/08/16 12:30:59;;;;;;;13.88;9.40;;;14.70;99.90;;;;;;5033692;28;20174;-64
2021/08/16 12:33:25;;;;;;;10.13;8.90;;;14.60;99.90;;;;;;5033736;28;20534;-64
2021/08/16 12:35:59;;;;;;;9.38;6.53;;;15.00;99.90;;;;;;5033568;28;20177;-65
2021/08/16 12:38:28;;;;;;;7.95;6.15;;;14.40;99.90;;;;;;5033457;28;20560;-64
2021/08/16 12:41:06;;;;;;;10.70;5.75;;;14.60;99.90;;;;;;5033586;28;20176;-64
2021/08/16 12:43:42;;;;;;;8.45;6.00;;;14.20;99.90;;;;;;5033465;28;20221;-65
2021/08/16 12:46:09;;;;;;;7.05;6.20;;;14.30;99.90;;;;;;5033504;28;20161;-64
2021/08/16 12:48:53;;;;;;;17.65;6.85;;;14.20;99.90;;;;;;5033385;28;20182;-64
2021/08/16 12:51:18;;;;;;;6.95;6.28;;;14.10;99.90;;;;;;5033496;28;20197;-64
2021/08/16 12:53:44;;;;;;;7.60;6.80;;;13.80;99.90;;;;;;5033386;28;20204;-64
2021/08/16 13:23:02;;;;;;;10.73;8.50;;;14.10;99.90;;;;;;5070812;28;20541;-64
2021/08/16 13:25:30;;;;;;;12.02;8.88;;;14.30;99.90;;;;;;5069675;28;20679;-65
2021/08/16 13:27:55;;;;;;;13.32;8.93;;;14.30;99.90;;;;;;5070618;28;20176;-65
2021/08/16 13:30:21;;;;;;;12.07;9.25;;;14.40;99.90;;;;;;5070605;28;20176;-65
2021/08/16 13:32:46;;;;;;;13.73;8.07;;;14.50;99.90;;;;;;5070613;28;20176;-65
2021/08/16 13:35:12;;;;;;;9.10;8.10;;;14.60;99.90;;;;;;5070592;28;20204;-65
2021/08/16 13:37:38;;;;;;;11.43;8.98;;;14.60;99.90;;;;;;5070513;28;20683;-65
2021/08/16 13:40:04;;;;;;;11.93;8.75;;;14.60;99.90;;;;;;5070476;28;20230;-65
2021/08/16 13:42:30;;;;;;;9.50;8.65;;;14.50;99.90;;;;;;5070278;28;20195;-65
2021/08/16 13:44:55;;;;;;;14.52;7.65;;;14.60;99.90;;;;;;5069026;28;20173;-65
2021/08/16 13:47:21;;;;;;;14.55;8.20;;;14.60;99.90;;;;;;5070295;28;20172;-65
2021/08/16 13:49:46;;;;;;;18.55;8.10;;;14.60;99.90;;;;;;5070228;28;20172;-65
2021/08/16 13:52:12;;;;;;;12.75;8.13;;;14.60;99.90;;;;;;5070151;28;20518;-65
2021/08/16 13:54:37;;;;;;;10.25;8.45;;;14.50;99.90;;;;;;5070133;28;20303;-65
2021/08/16 13:57:03;;;;;;;15.70;9.38;;;14.60;99.90;;;;;;5070045;28;20259;-65
2021/08/16 13:59:29;;;;;;;17.98;8.95;;;14.50;99.90;;;;;;5070012;28;20172;-65
2021/08/16 14:01:54;;;;;;;14.23;9.07;;;14.50;99.90;;;;;;5069847;28;20678;-65
2021/08/16 14:04:20;;;;;;;12.20;7.90;;;14.40;99.90;;;;;;5069947;28;20187;-65
2021/08/16 14:06:45;;;;;;;22.23;8.23;;;14.50;99.90;;;;;;5069950;28;20192;-65
2021/08/16 14:09:13;;;;;;;13.02;8.48;;;14.60;99.90;;;;;;5069859;28;20196;-65
2021/08/16 14:11:39;;;;;;;18.60;8.80;;;14.60;99.90;;;;;;5069759;28;20230;-65
2021/08/16 14:14:04;;;;;;;19.83;9.90;;;14.70;99.90;;;;;;5069743;28;20172;-65
2021/08/16 14:16:30;;;;;;;16.23;9.55;;;14.70;99.90;;;;;;5069700;28;20252;-65
2021/08/16 14:18:56;;;;;;;12.15;9.32;;;14.70;99.90;;;;;;5069600;28;20168;-65
2021/08/16 14:21:21;;;;;;;17.63;10.27;;;14.70;99.90;;;;;;5069196;28;20248;-65
2021/08/16 14:23:47;;;;;;;13.07;9.52;;;14.70;99.90;;;;;;5069510;28;20532;-65
2021/08/16 14:26:12;;;;;;;17.52;9.40;;;14.70;99.90;;;;;;5069383;28;20184;-65
2021/08/16 14:28:38;;;;;;;20.58;9.95;;;14.60;99.90;;;;;;5069437;28;20176;-65
2021/08/16 14:31:04;;;;;;;21.77;10.75;;;14.50;99.90;;;;;;5069512;28;20177;-65
2021/08/16 14:33:31;;;;;;;22.85;8.98;;;14.50;99.90;;;;;;5061030;28;20648;-65
2021/08/16 14:35:56;;;;;;;16.23;8.77;;;14.50;99.90;;;;;;5056219;28;20540;-65
2021/08/16 14:38:22;;;;;;;19.17;9.63;;;14.50;99.90;;;;;;5056100;28;20172;-65
2021/08/16 14:40:48;;;;;;;17.55;9.85;;;14.50;99.90;;;;;;5055854;28;20180;-65
2021/08/16 14:43:13;;;;;;;15.80;8.30;;;14.50;99.90;;;;;;5055988;28;20204;-65
2021/08/16 14:45:39;;;;;;;11.35;7.97;;;14.60;99.90;;;;;;5055919;28;20294;-65
2021/08/16 14:48:05;;;;;;;15.20;8.20;;;14.60;99.90;;;;;;5055784;28;20173;-65
2021/08/16 14:50:30;;;;;;;15.95;9.13;;;14.70;99.90;;;;;;5055753;28;20172;-65
2021/08/16 14:52:56;;;;;;;24.23;9.60;;;14.70;99.90;;;;;;5055716;28;20167;-66
2021/08/16 14:55:25;;;;;;;10.48;6.47;;;14.70;99.90;;;;;;5055748;28;20219;-66
2021/08/16 14:57:51;;;;;;;7.07;4.72;;;14.40;99.90;;;;;;5054441;28;20173;-66
2021/08/16 15:00:19;;;;;;;7.20;3.83;;;13.90;99.90;;;;;;5055538;28;20169;-66
2021/08/16 15:02:46;;;;;;;6.57;3.15;;;13.40;99.90;;;;;;5055529;28;20208;-65
2021/08/16 15:05:13;;;;;;;5.70;3.20;;;12.90;99.90;;;;;;5054448;28;20177;-65
2021/08/16 15:07:39;;;;;;;8.73;4.00;;;12.60;99.90;;;;;;5054223;28;20260;-65
2021/08/16 15:23:20;;;;;;;7.70;4.68;;;12.20;99.90;;;;;;5070733;28;20608;-65
2021/08/16 15:25:45;;;;;;;4.55;4.15;;;12.30;99.90;;;;;;5070662;28;20176;-65
2021/08/16 15:28:11;;;;;;;6.65;4.80;;;12.30;99.90;;;;;;5070695;28;20160;-65
2021/08/16 15:30:37;;;;;;;5.05;3.50;;;12.40;99.90;;;;;;5070594;28;20702;-65
2021/08/16 15:33:03;;;;;;;6.45;3.88;;;12.40;99.90;;;;;;5070506;28;20177;-65
2021/08/16 15:35:29;;;;;;;5.90;4.40;;;12.40;99.90;;;;;;5070516;28;20239;-65
2021/08/16 15:37:55;;;;;;;15.98;4.28;;;12.40;99.90;;;;;;5070443;28;20199;-65
2021/08/16 15:40:20;;;;;;;16.90;4.93;;;12.50;99.90;;;;;;5070356;28;20180;-65
2021/08/16 15:42:48;;;;;;;8.45;4.53;;;12.60;99.90;;;;;;5070263;28;20200;-65
2021/08/16 15:45:15;;;;;;;9.07;5.10;;;12.70;99.90;;;;;;5070275;28;20157;-65
2021/08/16 15:47:40;;;;;;;11.90;4.68;;;12.70;99.90;;;;;;5070170;28;20533;-65
2021/08/16 17:15:16;;;;;;;12.68;6.15;;;12.30;99.90;;;;;;5070318;28;20562;-67
2021/08/16 17:17:43;;;;;;;14.52;6.65;;;12.40;99.90;;;;;;5074083;28;20230;-67
2021/08/16 17:20:09;;;;;;;12.23;5.45;;;12.50;99.90;;;;;;5071131;28;20173;-67
2021/08/16 17:22:35;;;;;;;10.35;5.75;;;12.60;99.90;;;;;;5070186;28;20259;-67
2021/08/16 17:25:01;;;;;;;12.18;5.90;;;12.60;99.90;;;;;;5070333;28;20625;-67
2021/08/16 17:27:28;;;;;;;11.82;6.65;;;12.50;99.90;;;;;;5070413;28;20255;-67
2021/08/16 17:29:54;;;;;;;11.13;6.03;;;12.60;99.90;;;;;;5070359;28;20175;-67
2021/08/16 17:32:20;;;;;;;11.05;6.82;;;12.70;99.90;;;;;;5070327;28;20164;-67
2021/08/16 17:34:46;;;;;;;15.07;6.90;;;12.70;99.90;;;;;;5070087;28;20343;-67
2021/08/16 17:37:12;;;;;;;13.70;7.22;;;12.90;99.90;;;;;;5070072;28;20184;-67
2021/08/16 17:39:38;;;;;;;17.98;5.80;;;12.90;99.90;;;;;;5070268;28;20165;-67
2021/08/16 17:42:05;;;;;;;11.63;6.28;;;13.00;99.90;;;;;;5070203;28;20164;-67
2021/08/16 17:44:30;;;;;;;10.43;5.50;;;13.00;99.90;;;;;;5070018;28;20181;-67
2021/08/16 17:46:58;;;;;;;13.07;6.70;;;13.20;99.90;;;;;;5070177;28;20176;-67
2021/08/16 17:49:25;;;;;;;13.95;6.38;;;13.20;99.90;;;;;;5069800;28;20247;-67
2021/08/16 17:51:52;;;;;;;13.80;5.80;;;13.30;99.90;;;;;;5069888;28;20171;-67
2021/08/16 17:54:18;;;;;;;11.38;6.15;;;13.20;99.90;;;;;;5070472;28;20684;-67
2021/08/16 17:56:44;;;;;;;12.05;5.57;;;13.10;99.90;;;;;;5069466;28;20193;-67
2021/08/16 17:59:09;;;;;;;10.00;6.22;;;13.00;99.90;;;;;;5069506;28;20169;-67
